Loading...
Marseille Provence Airport

LFML

Code AITA: MRS

Marseille, Provence-Alpes-Côte d'Azur, France

9.0°

Rosée: 9.0

Vitesse du vent

5 kt

Direction: 340° /

Altimètre

29.53 Hg

QNH : 1000

LFML 100200Z AUTO 34005KT 5000 BR OVC003 09/09 Q1000 TEMPO BKN005


Marseille Provence Airport

Élévation

20.0 mètres

Ville

Marignane

Localisation

Provence-Alpes-Côte d'Azur

Pays

France

Nouvelle recherche